createdAt,value
2022-10-24T00:01:10.388Z,98707.22
2022-10-24T00:03:37.480Z,98706.69
2022-10-24T00:06:06.215Z,98705.69
2022-10-24T00:08:34.512Z,98717.50
2022-10-24T00:11:01.288Z,98721.06
2022-10-24T00:13:28.384Z,98715.22
2022-10-24T00:15:55.192Z,98717.50
2022-10-24T00:18:22.228Z,98719.09
2022-10-24T00:20:49.050Z,98707.53
2022-10-24T00:23:16.075Z,98714.53
2022-10-24T00:25:42.828Z,98720.09
2022-10-24T00:28:09.906Z,98719.94
2022-10-24T00:30:36.672Z,98723.91
2022-10-24T00:33:03.825Z,98719.38
2022-10-24T00:35:31.088Z,98715.66
2022-10-24T00:37:58.152Z,98732.03
2022-10-24T00:40:24.991Z,98719.91
2022-10-24T00:42:52.092Z,98721.34
2022-10-24T00:45:57.936Z,98724.78
2022-10-24T00:48:31.427Z,98714.66
2022-10-24T00:51:01.138Z,98714.09
2022-10-24T00:53:28.319Z,98720.94
2022-10-24T00:55:57.331Z,98720.22
2022-10-24T00:58:26.195Z,98722.94
2022-10-24T01:00:53.023Z,98717.78
2022-10-24T01:03:20.079Z,98713.22
2022-10-24T01:05:58.516Z,98707.22
2022-10-24T01:08:31.443Z,98690.53
2022-10-24T01:10:58.208Z,98698.00
2022-10-24T01:13:27.997Z,98712.50
2022-10-24T01:16:04.067Z,98707.34
2022-10-24T01:18:34.772Z,98700.69
2022-10-24T01:21:15.891Z,98696.09
2022-10-24T01:23:50.726Z,98684.16
2022-10-24T01:26:39.037Z,98682.00
2022-10-24T01:29:34.646Z,98689.03
2022-10-24T01:32:12.191Z,98691.13
2022-10-24T01:34:48.918Z,98689.03
2022-10-24T01:37:18.759Z,98680.28
2022-10-24T01:39:51.267Z,98678.47
2022-10-24T01:42:20.181Z,98667.47
2022-10-24T01:44:49.414Z,98683.00
2022-10-24T01:47:28.049Z,98692.84
2022-10-24T01:50:06.383Z,98704.38
2022-10-24T01:52:34.490Z,98705.41
2022-10-24T01:55:01.425Z,98715.34
2022-10-24T01:57:29.313Z,98710.06
2022-10-24T01:59:56.225Z,98706.78
2022-10-24T02:02:31.245Z,98700.13
2022-10-24T02:05:07.081Z,98687.38
2022-10-24T02:07:34.271Z,98695.38
2022-10-24T02:10:04.232Z,98688.53
2022-10-24T02:12:31.433Z,98685.69
2022-10-24T02:15:02.095Z,98716.88
2022-10-24T02:20:01.208Z,98715.91
2022-10-24T02:22:28.186Z,98710.19
2022-10-24T02:25:02.456Z,98695.50
2022-10-24T02:27:33.196Z,98701.63
2022-10-24T02:30:09.881Z,98700.50
2022-10-24T02:32:39.340Z,98704.78
2022-10-24T02:35:06.874Z,98704.06
2022-10-24T02:37:35.004Z,98720.31
2022-10-24T02:40:02.144Z,98726.44
2022-10-24T02:45:00.837Z,98719.59
2022-10-24T02:47:27.909Z,98710.50
2022-10-24T02:49:54.760Z,98715.78
2022-10-24T02:52:21.955Z,98709.34
2022-10-24T02:54:48.701Z,98709.63
2022-10-24T02:57:15.741Z,98704.78
2022-10-24T02:59:42.476Z,98708.50
2022-10-24T03:02:09.532Z,98713.06
2022-10-24T03:04:36.307Z,98703.22
2022-10-24T03:07:03.384Z,98695.50
2022-10-24T03:09:30.131Z,98695.50
2022-10-24T03:11:57.151Z,98704.94
2022-10-24T03:14:23.887Z,98703.81
2022-10-24T03:16:50.946Z,98699.66
2022-10-24T03:19:17.747Z,98700.38
2022-10-24T03:21:44.742Z,98699.25
2022-10-24T03:24:11.527Z,98690.28
2022-10-24T03:26:38.512Z,98686.97
2022-10-24T03:29:05.351Z,98685.00
2022-10-24T03:31:32.392Z,98682.56
2022-10-24T03:33:59.184Z,98675.19
2022-10-24T03:36:26.278Z,98679.59
2022-10-24T03:38:53.027Z,98678.72
2022-10-24T03:41:20.051Z,98678.47
2022-10-24T03:43:46.806Z,98672.78
2022-10-24T03:46:14.004Z,98675.63
2022-10-24T03:48:40.808Z,98670.47
2022-10-24T03:51:07.916Z,98680.16
2022-10-24T03:53:34.936Z,98681.03
2022-10-24T03:56:02.392Z,98687.16
2022-10-24T03:58:29.183Z,98691.56
2022-10-24T04:00:58.969Z,98694.44
2022-10-24T04:03:28.980Z,98690.97
2022-10-24T04:05:55.980Z,98682.59
2022-10-24T04:08:22.792Z,98673.63
2022-10-24T04:10:50.052Z,98672.47
2022-10-24T04:13:16.807Z,98674.47
2022-10-24T04:15:43.855Z,98663.38
2022-10-24T04:18:10.813Z,98673.38
2022-10-24T04:20:37.847Z,98673.22
2022-10-24T04:23:04.777Z,98671.38
2022-10-24T04:25:31.963Z,98675.94
2022-10-24T04:27:58.756Z,98667.69
2022-10-24T04:30:26.448Z,98673.66
2022-10-24T04:32:53.273Z,98676.25
2022-10-24T04:35:20.319Z,98678.19
2022-10-24T04:37:47.083Z,98677.94
2022-10-24T04:40:14.056Z,98676.25
2022-10-24T04:42:40.866Z,98675.94
2022-10-24T04:45:08.595Z,98667.25
2022-10-24T04:47:35.439Z,98672.38
2022-10-24T04:50:02.575Z,98669.53
2022-10-24T04:52:29.375Z,98669.81
2022-10-24T04:54:56.399Z,98669.00
2022-10-24T04:57:23.179Z,98663.59
2022-10-24T04:59:50.128Z,98665.28
2022-10-24T05:02:17.013Z,98648.44
2022-10-24T05:04:44.174Z,98651.03
2022-10-24T05:07:10.943Z,98660.72
2022-10-24T05:09:37.967Z,98656.31
2022-10-24T05:12:05.055Z,98655.47
2022-10-24T05:14:32.171Z,98649.03
2022-10-24T05:16:59.014Z,98651.03
2022-10-24T05:19:26.087Z,98655.00
2022-10-24T05:21:52.831Z,98654.03
2022-10-24T05:24:19.859Z,98667.28
2022-10-24T05:26:46.605Z,98685.09
2022-10-24T05:29:13.584Z,98693.09
2022-10-24T05:31:40.940Z,98688.81
2022-10-24T05:34:07.907Z,98692.50
2022-10-24T05:36:34.861Z,98697.94
2022-10-24T05:39:01.902Z,98697.78
2022-10-24T05:41:28.754Z,98698.63
2022-10-24T05:43:55.771Z,98695.66
2022-10-24T05:46:22.558Z,98706.22
2022-10-24T05:48:49.558Z,98710.78
2022-10-24T05:51:16.394Z,98718.06
2022-10-24T05:53:43.407Z,98718.34
2022-10-24T05:56:10.337Z,98714.75
2022-10-24T05:58:37.390Z,98714.47
2022-10-24T06:01:04.731Z,98709.63
2022-10-24T06:03:31.823Z,98716.50
2022-10-24T06:06:03.457Z,98703.09
2022-10-24T06:08:30.638Z,98711.94
2022-10-24T06:10:57.413Z,98713.22
2022-10-24T06:13:24.439Z,98715.50
2022-10-24T06:15:51.380Z,98716.78
2022-10-24T06:18:18.355Z,98707.09
2022-10-24T06:20:45.303Z,98698.13
2022-10-24T06:23:12.316Z,98707.22
2022-10-24T06:25:42.180Z,98719.50
2022-10-24T06:30:41.748Z,98736.59
2022-10-24T06:33:08.751Z,98726.19
2022-10-24T06:35:35.847Z,98720.50
2022-10-24T06:38:02.872Z,98722.09
2022-10-24T06:40:29.651Z,98739.03
2022-10-24T06:42:56.710Z,98728.50
2022-10-24T06:45:24.238Z,98728.38
2022-10-24T06:47:54.052Z,98748.03
2022-10-24T06:50:21.459Z,98741.47
2022-10-24T06:52:48.455Z,98737.06
2022-10-24T06:55:15.427Z,98731.66
2022-10-24T06:57:42.614Z,98729.50
2022-10-24T07:00:10.451Z,98737.63
2022-10-24T07:02:37.525Z,98733.94
2022-10-24T07:05:04.603Z,98731.38
2022-10-24T07:07:31.854Z,98731.44
2022-10-24T07:09:58.711Z,98745.69
2022-10-24T07:12:25.975Z,98732.28
2022-10-24T07:14:52.747Z,98735.94
2022-10-24T07:17:20.126Z,98731.56
2022-10-24T07:19:52.606Z,98731.56
2022-10-24T07:22:19.647Z,98734.28
2022-10-24T07:24:46.459Z,98734.84
2022-10-24T07:27:13.446Z,98722.56
2022-10-24T07:29:40.208Z,98721.31
2022-10-24T07:32:07.187Z,98714.72
2022-10-24T07:34:34.882Z,98702.03
2022-10-24T07:37:04.137Z,98699.16
2022-10-24T07:39:30.926Z,98696.47
2022-10-24T07:41:57.918Z,98694.63
2022-10-24T07:44:24.770Z,98692.91
2022-10-24T07:46:51.791Z,98700.34
2022-10-24T07:49:18.573Z,98713.44
2022-10-24T07:51:45.613Z,98720.44
2022-10-24T07:54:12.418Z,98720.28
2022-10-24T07:56:39.443Z,98701.16
2022-10-24T07:59:09.469Z,98687.34
2022-10-24T08:01:40.852Z,98686.59
2022-10-24T08:04:07.684Z,98691.44
2022-10-24T08:06:34.958Z,98686.72
2022-10-24T08:09:02.030Z,98681.31
2022-10-24T08:11:29.303Z,98682.75
2022-10-24T08:13:57.353Z,98665.44
2022-10-24T08:16:24.614Z,98647.19
2022-10-24T08:18:52.402Z,98654.88
2022-10-24T08:21:20.289Z,98656.44
2022-10-24T08:23:47.983Z,98661.56
2022-10-24T08:26:16.891Z,98662.28
2022-10-24T08:28:43.877Z,98669.72
2022-10-24T08:31:12.774Z,98673.00
2022-10-24T08:33:39.754Z,98665.41
2022-10-24T08:36:19.365Z,98697.81
2022-10-24T08:38:46.125Z,98731.78
2022-10-24T08:41:16.565Z,98710.63
2022-10-24T08:43:43.300Z,98697.06
2022-10-24T08:46:52.232Z,98693.66
2022-10-24T08:49:31.332Z,98693.34
2022-10-24T08:52:04.081Z,98687.22
2022-10-24T08:54:36.804Z,98687.09
2022-10-24T08:57:04.186Z,98684.94
2022-10-24T08:59:31.976Z,98693.34
2022-10-24T09:02:04.146Z,98692.78
2022-10-24T09:04:36.627Z,98686.22
2022-10-24T09:07:03.733Z,98686.06
2022-10-24T09:09:39.325Z,98692.63
2022-10-24T09:12:12.371Z,98699.16
2022-10-24T09:14:40.755Z,98713.28
2022-10-24T09:17:25.163Z,98707.88
2022-10-24T09:20:23.530Z,98704.59
2022-10-24T09:22:50.756Z,98707.88
2022-10-24T09:25:21.904Z,98715.88
2022-10-24T09:27:49.443Z,98713.84
2022-10-24T09:30:18.627Z,98702.97
2022-10-24T09:32:45.684Z,98687.41
2022-10-24T09:35:24.018Z,98677.25
2022-10-24T09:37:55.233Z,98671.50
2022-10-24T09:40:30.501Z,98661.53
2022-10-24T09:43:04.303Z,98655.94
2022-10-24T09:45:37.485Z,98649.03
2022-10-24T09:48:15.118Z,98647.72
2022-10-24T09:50:42.765Z,98668.84
2022-10-24T09:53:20.945Z,98676.53
2022-10-24T09:55:48.733Z,98686.09
2022-10-24T09:58:20.787Z,98696.81
2022-10-24T10:01:17.054Z,98705.19
2022-10-24T10:03:44.347Z,98709.63
2022-10-24T10:06:18.825Z,98699.47
2022-10-24T10:08:56.269Z,98689.44
2022-10-24T10:11:35.166Z,98694.44
2022-10-24T10:14:02.957Z,98693.13
2022-10-24T10:16:34.546Z,98690.97
2022-10-24T10:19:05.569Z,98692.59
2022-10-24T10:21:58.300Z,98693.13
2022-10-24T10:24:42.243Z,98696.06
2022-10-24T10:27:32.537Z,98687.31
2022-10-24T10:30:11.612Z,98692.16
2022-10-24T10:33:17.616Z,98688.13
2022-10-24T10:35:55.896Z,98688.34
2022-10-24T10:38:35.065Z,98681.59
2022-10-24T10:41:25.128Z,98677.38
2022-10-24T10:44:13.266Z,98681.34
2022-10-24T10:47:02.459Z,98676.28
2022-10-24T10:49:39.907Z,98676.50
2022-10-24T10:52:09.805Z,98673.16
2022-10-24T10:55:14.341Z,98664.66
2022-10-24T10:58:13.126Z,98680.75
2022-10-24T11:00:58.841Z,98676.50
2022-10-24T11:03:30.887Z,98682.16
2022-10-24T11:06:16.407Z,98686.66
2022-10-24T11:09:04.024Z,98687.03
2022-10-24T11:11:32.212Z,98697.09
2022-10-24T11:14:30.020Z,98703.31
2022-10-24T11:16:59.048Z,98706.41
2022-10-24T11:19:27.887Z,98705.91
2022-10-24T11:21:56.645Z,98703.72
2022-10-24T11:24:23.647Z,98695.75
2022-10-24T11:26:57.281Z,98687.94
2022-10-24T11:29:42.104Z,98689.16
2022-10-24T11:32:26.468Z,98673.19
2022-10-24T11:34:59.897Z,98677.78
2022-10-24T11:37:54.800Z,98681.75
2022-10-24T11:40:22.764Z,98687.72
2022-10-24T11:42:55.907Z,98686.88
2022-10-24T11:45:28.775Z,98683.28
2022-10-24T11:47:55.627Z,98671.91
2022-10-24T11:50:25.857Z,98671.56
2022-10-24T11:52:54.856Z,98671.06
2022-10-24T11:55:24.347Z,98664.09
2022-10-24T11:57:53.742Z,98653.19
2022-10-24T12:00:26.163Z,98655.72
2022-10-24T12:03:11.683Z,98657.97
2022-10-24T12:06:02.872Z,98648.28
2022-10-24T12:08:54.999Z,98648.78
2022-10-24T12:11:21.974Z,98654.91
2022-10-24T12:14:07.248Z,98657.63
2022-10-24T12:16:57.312Z,98650.00
2022-10-24T12:19:24.098Z,98658.69
2022-10-24T12:21:55.110Z,98654.59
2022-10-24T12:24:30.304Z,98642.50
2022-10-24T12:27:02.783Z,98638.72
2022-10-24T12:29:33.598Z,98635.66
2022-10-24T12:32:24.075Z,98626.63
2022-10-24T12:37:49.171Z,98622.69
2022-10-24T12:40:58.724Z,98621.69
2022-10-24T12:43:38.546Z,98628.50
2022-10-24T12:46:15.888Z,98635.84
2022-10-24T12:48:58.070Z,98631.38
2022-10-24T12:51:40.330Z,98623.03
2022-10-24T12:54:13.548Z,98621.69
2022-10-24T12:56:49.656Z,98612.66
2022-10-24T12:59:20.902Z,98619.78
2022-10-24T13:01:49.044Z,98613.16
2022-10-24T13:04:35.169Z,98620.63
2022-10-24T13:07:28.777Z,98619.47
2022-10-24T13:10:01.954Z,98626.63
2022-10-24T13:13:03.795Z,98616.56
2022-10-24T13:15:57.754Z,98613.81
2022-10-24T13:18:31.206Z,98617.56
2022-10-24T13:21:31.333Z,98615.72
2022-10-24T13:24:16.599Z,98610.44
2022-10-24T13:26:47.887Z,98622.00
2022-10-24T13:29:23.955Z,98610.25
2022-10-24T13:31:51.691Z,98615.88
2022-10-24T13:34:30.644Z,98609.56
2022-10-24T13:37:10.877Z,98613.81
2022-10-24T13:39:41.322Z,98615.72
2022-10-24T13:42:19.597Z,98619.47
2022-10-24T13:44:48.525Z,98617.41
2022-10-24T13:47:21.449Z,98611.28
2022-10-24T13:49:54.857Z,98606.66
2022-10-24T13:52:29.928Z,98591.16
2022-10-24T13:55:00.354Z,98592.16
2022-10-24T13:57:28.953Z,98589.44
2022-10-24T13:59:57.592Z,98596.63
2022-10-24T14:02:29.772Z,98597.63
2022-10-24T14:04:59.311Z,98600.19
2022-10-24T14:07:28.407Z,98590.28
2022-10-24T14:10:02.736Z,98598.13
2022-10-24T14:12:30.991Z,98610.25
2022-10-24T14:14:58.856Z,98611.78
2022-10-24T14:17:28.791Z,98614.50
2022-10-24T14:20:08.855Z,98615.53
2022-10-24T14:22:39.738Z,98621.00
2022-10-24T14:25:28.575Z,98613.66
2022-10-24T14:27:58.379Z,98615.53
2022-10-24T14:30:28.479Z,98621.84
2022-10-24T14:33:13.781Z,98615.72
2022-10-24T14:35:40.905Z,98617.56
2022-10-24T14:38:09.869Z,98617.41
2022-10-24T14:40:36.729Z,98619.47
2022-10-24T14:43:03.779Z,98610.44
2022-10-24T14:45:30.709Z,98613.16
2022-10-24T14:47:58.961Z,98619.63
2022-10-24T14:50:39.520Z,98618.94
2022-10-24T14:53:06.676Z,98617.06
2022-10-24T14:55:33.516Z,98618.09
2022-10-24T14:58:00.582Z,98620.63
2022-10-24T15:00:28.692Z,98620.13
2022-10-24T15:02:57.522Z,98624.06
2022-10-24T15:05:24.528Z,98629.38
2022-10-24T15:08:23.461Z,98624.25
2022-10-24T15:10:50.472Z,98628.16
2022-10-24T15:13:21.274Z,98625.59
2022-10-24T15:15:52.294Z,98628.31
2022-10-24T15:18:27.135Z,98619.63
2022-10-24T15:21:06.304Z,98612.50
2022-10-24T15:23:35.480Z,98613.50
2022-10-24T15:26:20.493Z,98609.44
2022-10-24T15:29:08.620Z,98607.88
2022-10-24T15:31:39.918Z,98617.06
2022-10-24T15:34:08.880Z,98609.94
2022-10-24T15:36:36.327Z,98620.00
2022-10-24T15:39:05.996Z,98621.00
2022-10-24T15:41:32.945Z,98616.91
2022-10-24T15:44:00.623Z,98625.28
2022-10-24T15:46:28.164Z,98617.28
2022-10-24T15:48:55.229Z,98622.00
2022-10-24T15:51:23.219Z,98622.19
2022-10-24T15:53:50.410Z,98617.94
2022-10-24T15:56:17.430Z,98615.34
2022-10-24T15:58:44.583Z,98625.56
2022-10-24T16:01:22.649Z,98624.91
2022-10-24T16:03:49.701Z,98620.63
2022-10-24T16:06:16.466Z,98619.06
2022-10-24T16:08:43.466Z,98619.28
2022-10-24T16:11:11.693Z,98625.06
2022-10-24T16:13:38.702Z,98628.09
2022-10-24T16:16:05.870Z,98630.00
2022-10-24T16:18:34.406Z,98619.41
2022-10-24T16:21:01.570Z,98612.59
2022-10-24T16:23:28.594Z,98617.19
2022-10-24T16:25:55.353Z,98620.25
2022-10-24T16:28:23.905Z,98622.28
2022-10-24T16:30:50.861Z,98625.19
2022-10-24T16:33:20.146Z,98616.34
2022-10-24T16:35:49.938Z,98615.81
2022-10-24T16:38:16.945Z,98620.41
2022-10-24T16:40:46.909Z,98624.31
2022-10-24T16:43:15.302Z,98623.66
2022-10-24T16:45:42.799Z,98623.09
2022-10-24T16:48:10.178Z,98636.03
2022-10-24T16:50:36.965Z,98639.81
2022-10-24T16:53:05.196Z,98635.34
2022-10-24T16:55:32.120Z,98636.38
2022-10-24T16:57:59.181Z,98623.06
2022-10-24T17:00:26.101Z,98623.25
2022-10-24T17:02:54.256Z,98633.44
2022-10-24T17:05:22.915Z,98633.63
2022-10-24T17:07:49.994Z,98623.75
2022-10-24T17:10:20.626Z,98627.47
2022-10-24T17:12:50.866Z,98632.25
2022-10-24T17:15:21.106Z,98618.97
2022-10-24T17:17:49.616Z,98628.31
2022-10-24T17:20:17.416Z,98623.88
2022-10-24T17:22:45.229Z,98621.31
2022-10-24T17:25:23.196Z,98616.88
2022-10-24T17:27:50.375Z,98633.41
2022-10-24T17:30:27.423Z,98617.56
2022-10-24T17:32:54.502Z,98616.69
2022-10-24T17:35:22.378Z,98612.13
2022-10-24T17:37:56.225Z,98621.28
2022-10-24T17:40:25.313Z,98613.28
2022-10-24T17:42:52.581Z,98625.22
2022-10-24T17:45:21.205Z,98616.34
2022-10-24T17:47:48.608Z,98617.53
2022-10-24T17:50:15.533Z,98628.41
2022-10-24T17:52:43.774Z,98622.97
2022-10-24T17:55:41.021Z,98614.25
2022-10-24T17:58:08.341Z,98613.38
2022-10-24T18:00:35.261Z,98616.63
2022-10-24T18:03:02.325Z,98617.28
2022-10-24T18:05:29.879Z,98620.19
2022-10-24T18:07:58.084Z,98634.78
2022-10-24T18:10:24.979Z,98633.94
2022-10-24T18:12:52.007Z,98625.94
2022-10-24T18:15:21.915Z,98629.69
2022-10-24T18:17:49.262Z,98628.81
2022-10-24T18:20:16.350Z,98623.53
2022-10-24T18:22:43.958Z,98629.16
2022-10-24T18:25:11.952Z,98630.19
2022-10-24T18:27:39.484Z,98635.63
2022-10-24T18:30:06.834Z,98642.06
2022-10-24T18:32:34.022Z,98639.50
2022-10-24T18:35:00.799Z,98642.25
2022-10-24T18:37:28.054Z,98648.72
2022-10-24T18:39:55.164Z,98652.59
2022-10-24T18:42:34.345Z,98647.16
2022-10-24T18:45:01.558Z,98641.88
2022-10-24T18:47:29.398Z,98654.78
2022-10-24T18:49:57.406Z,98652.06
2022-10-24T18:52:48.590Z,98650.19
2022-10-24T18:55:20.944Z,98648.50
2022-10-24T18:57:48.893Z,98658.69
2022-10-24T19:00:26.589Z,98661.56
2022-10-24T19:02:59.613Z,98662.44
2022-10-24T19:05:41.313Z,98659.03
2022-10-24T19:08:16.146Z,98650.16
2022-10-24T19:10:43.309Z,98647.94
2022-10-24T19:13:10.515Z,98644.16
2022-10-24T19:15:39.210Z,98652.06
2022-10-24T19:18:06.662Z,98646.47
2022-10-24T19:20:35.132Z,98656.84
2022-10-24T19:23:05.201Z,98642.84
2022-10-24T19:25:32.934Z,98650.47
2022-10-24T19:27:59.914Z,98647.94
2022-10-24T19:30:26.678Z,98648.25
2022-10-24T19:32:53.652Z,98648.56
2022-10-24T19:35:20.474Z,98643.28
2022-10-24T19:37:47.860Z,98645.31
2022-10-24T19:40:14.853Z,98649.88
2022-10-24T19:42:42.060Z,98660.94
2022-10-24T19:45:09.089Z,98652.06
2022-10-24T19:47:36.129Z,98646.63
2022-10-24T19:50:02.952Z,98654.25
2022-10-24T19:52:29.972Z,98657.13
2022-10-24T19:54:56.770Z,98653.56
2022-10-24T19:57:23.784Z,98649.28
2022-10-24T19:59:50.540Z,98645.88
2022-10-24T20:02:17.584Z,98653.88
2022-10-24T20:04:48.133Z,98656.06
2022-10-24T20:07:17.731Z,98645.19
2022-10-24T20:09:44.749Z,98651.78
2022-10-24T20:12:11.869Z,98648.06
2022-10-24T20:14:38.646Z,98639.91
2022-10-24T20:17:05.661Z,98646.34
2022-10-24T20:19:32.397Z,98646.50
2022-10-24T20:22:02.338Z,98649.56
2022-10-24T20:24:30.605Z,98649.56
2022-10-24T20:26:57.635Z,98649.72
2022-10-24T20:29:24.480Z,98647.31
2022-10-24T20:31:51.573Z,98650.88
2022-10-24T20:34:18.333Z,98647.78
2022-10-24T20:36:47.291Z,98656.09
2022-10-24T20:39:16.070Z,98650.66
2022-10-24T20:41:43.290Z,98644.06
2022-10-24T20:44:11.036Z,98640.25
2022-10-24T20:46:38.079Z,98641.13
2022-10-24T20:49:05.089Z,98636.53
2022-10-24T20:51:32.168Z,98639.72
2022-10-24T20:53:59.007Z,98643.31
2022-10-24T20:56:26.750Z,98660.84
2022-10-24T20:58:54.604Z,98657.91
2022-10-24T21:01:26.701Z,98664.03
2022-10-24T21:03:54.174Z,98663.78
2022-10-24T21:06:22.003Z,98664.69
2022-10-24T21:08:49.780Z,98661.50
2022-10-24T21:11:24.578Z,98665.66
2022-10-24T21:14:08.103Z,98659.53
2022-10-24T21:16:35.289Z,98660.66
2022-10-24T21:19:02.335Z,98656.66
2022-10-24T21:21:29.374Z,98657.78
2022-10-24T21:24:03.930Z,98660.66
2022-10-24T21:26:35.006Z,98672.22
2022-10-24T21:29:14.584Z,98674.41
2022-10-24T21:31:49.727Z,98671.53
2022-10-24T21:34:17.148Z,98677.81
2022-10-24T21:36:44.220Z,98671.69
2022-10-24T21:39:14.851Z,98672.88
2022-10-24T21:41:41.992Z,98679.69
2022-10-24T21:44:08.907Z,98672.34
2022-10-24T21:46:35.975Z,98675.06
2022-10-24T21:49:02.779Z,98668.06
2022-10-24T21:51:32.840Z,98662.47
2022-10-24T21:54:20.715Z,98661.63
2022-10-24T21:56:47.841Z,98654.47
2022-10-24T21:59:16.446Z,98668.19
2022-10-24T22:01:44.203Z,98677.19
2022-10-24T22:04:11.539Z,98671.63
2022-10-24T22:06:38.878Z,98669.03
2022-10-24T22:09:06.924Z,98668.50
2022-10-24T22:11:34.946Z,98671.53
2022-10-24T22:14:02.003Z,98664.94
2022-10-24T22:16:29.858Z,98665.56
2022-10-24T22:18:57.154Z,98648.94
2022-10-24T22:21:25.530Z,98650.81
2022-10-24T22:23:52.347Z,98639.94
2022-10-24T22:26:19.378Z,98635.34
2022-10-24T22:28:46.179Z,98632.94
2022-10-24T22:31:13.582Z,98636.53
2022-10-24T22:33:40.638Z,98647.94
2022-10-24T22:36:36.843Z,98638.91
2022-10-24T22:39:04.798Z,98638.91
2022-10-24T22:41:32.102Z,98645.38
2022-10-24T22:43:59.074Z,98648.41
2022-10-24T22:46:26.092Z,98638.38
2022-10-24T22:48:55.437Z,98640.56
2022-10-24T22:51:22.643Z,98635.13
2022-10-24T22:53:49.641Z,98636.44
2022-10-24T22:56:22.896Z,98635.56
2022-10-24T22:58:49.884Z,98637.44
2022-10-24T23:01:52.517Z,98635.56
2022-10-24T23:04:39.119Z,98628.31
2022-10-24T23:07:22.534Z,98626.88
2022-10-24T23:09:52.291Z,98631.31
2022-10-24T23:12:20.446Z,98631.31
2022-10-24T23:14:47.842Z,98633.19
2022-10-24T23:17:24.971Z,98628.59
2022-10-24T23:19:52.058Z,98636.53
2022-10-24T23:22:29.698Z,98631.78
2022-10-24T23:24:58.435Z,98637.22
2022-10-24T23:27:25.386Z,98631.09
2022-10-24T23:29:52.398Z,98633.66
2022-10-24T23:32:23.070Z,98637.38
2022-10-24T23:34:50.521Z,98633.97
2022-10-24T23:37:38.394Z,98642.09
2022-10-24T23:40:14.394Z,98644.97
2022-10-24T23:42:41.454Z,98647.16
2022-10-24T23:45:15.496Z,98658.72
2022-10-24T23:47:51.498Z,98666.31
2022-10-24T23:50:30.625Z,98668.03
2022-10-24T23:53:04.881Z,98665.63
2022-10-24T23:55:32.163Z,98671.34
2022-10-24T23:58:01.104Z,98666.78
